sensor_id;sensor_type;location;lat;lon;timestamp;temperature;humidity
30473;DHT22;17263;48.160;11.452;2023-07-16T00:00:31;22.60;99.90
30473;DHT22;17263;48.160;11.452;2023-07-16T00:02:57;22.40;99.90
30473;DHT22;17263;48.160;11.452;2023-07-16T00:05:23;22.30;99.90
30473;DHT22;17263;48.160;11.452;2023-07-16T00:07:49;22.30;99.90
30473;DHT22;17263;48.160;11.452;2023-07-16T00:10:15;22.20;99.90
30473;DHT22;17263;48.160;11.452;2023-07-16T00:12:42;22.10;99.90
30473;DHT22;17263;48.160;11.452;2023-07-16T00:15:08;22.10;99.90
30473;DHT22;17263;48.160;11.452;2023-07-16T00:17:34;22.00;99.90
30473;DHT22;17263;48.160;11.452;2023-07-16T00:20:00;22.00;99.90
30473;DHT22;17263;48.160;11.452;2023-07-16T00:22:26;21.90;99.90
30473;DHT22;17263;48.160;11.452;2023-07-16T00:24:52;21.90;99.90
30473;DHT22;17263;48.160;11.452;2023-07-16T00:27:18;21.80;99.90
30473;DHT22;17263;48.160;11.452;2023-07-16T00:29:44;21.80;99.90
30473;DHT22;17263;48.160;11.452;2023-07-16T00:32:11;21.80;99.90
30473;DHT22;17263;48.160;11.452;2023-07-16T00:34:37;21.70;99.90
30473;DHT22;17263;48.160;11.452;2023-07-16T00:37:03;21.70;99.90
30473;DHT22;17263;48.160;11.452;2023-07-16T00:39:29;21.70;99.90
30473;DHT22;17263;48.160;11.452;2023-07-16T00:41:56;21.60;99.90
30473;DHT22;17263;48.160;11.452;2023-07-16T00:44:22;21.60;99.90
30473;DHT22;17263;48.160;11.452;2023-07-16T00:46:49;21.60;99.90
30473;DHT22;17263;48.160;11.452;2023-07-16T00:49:15;21.60;99.90
30473;DHT22;17263;48.160;11.452;2023-07-16T00:51:42;21.50;99.90
30473;DHT22;17263;48.160;11.452;2023-07-16T00:54:08;21.60;99.90
30473;DHT22;17263;48.160;11.452;2023-07-16T00:56:36;21.70;99.90
30473;DHT22;17263;48.160;11.452;2023-07-16T00:59:02;21.70;99.90
30473;DHT22;17263;48.160;11.452;2023-07-16T01:01:28;21.70;99.90
30473;DHT22;17263;48.160;11.452;2023-07-16T01:03:54;21.70;99.90
30473;DHT22;17263;48.160;11.452;2023-07-16T01:06:40;21.70;99.90
30473;DHT22;17263;48.160;11.452;2023-07-16T01:09:16;21.60;99.90
30473;DHT22;17263;48.160;11.452;2023-07-16T01:11:46;21.60;99.90
30473;DHT22;17263;48.160;11.452;2023-07-16T01:14:13;21.60;99.90
30473;DHT22;17263;48.160;11.452;2023-07-16T01:16:41;21.50;99.90
30473;DHT22;17263;48.160;11.452;2023-07-16T01:19:07;21.50;99.90
30473;DHT22;17263;48.160;11.452;2023-07-16T01:21:39;21.50;99.90
30473;DHT22;17263;48.160;11.452;2023-07-16T01:26:51;21.40;99.90
30473;DHT22;17263;48.160;11.452;2023-07-16T01:29:42;21.40;99.90
30473;DHT22;17263;48.160;11.452;2023-07-16T01:32:11;21.40;99.90
30473;DHT22;17263;48.160;11.452;2023-07-16T01:34:38;21.40;99.90
30473;DHT22;17263;48.160;11.452;2023-07-16T01:37:05;21.40;99.90
30473;DHT22;17263;48.160;11.452;2023-07-16T01:39:32;21.40;99.90
30473;DHT22;17263;48.160;11.452;2023-07-16T01:42:02;21.40;99.90
30473;DHT22;17263;48.160;11.452;2023-07-16T01:44:28;21.30;99.90
30473;DHT22;17263;48.160;11.452;2023-07-16T01:49:44;21.40;99.90
30473;DHT22;17263;48.160;11.452;2023-07-16T01:52:10;21.30;99.90
30473;DHT22;17263;48.160;11.452;2023-07-16T01:54:36;21.30;99.90
30473;DHT22;17263;48.160;11.452;2023-07-16T01:57:03;21.40;99.90
30473;DHT22;17263;48.160;11.452;2023-07-16T01:59:29;21.40;99.90
30473;DHT22;17263;48.160;11.452;2023-07-16T02:01:55;21.40;99.90
30473;DHT22;17263;48.160;11.452;2023-07-16T02:04:21;21.50;99.90
30473;DHT22;17263;48.160;11.452;2023-07-16T02:06:47;21.50;99.90
30473;DHT22;17263;48.160;11.452;2023-07-16T02:09:16;21.50;99.90
30473;DHT22;17263;48.160;11.452;2023-07-16T02:11:42;21.60;99.90
30473;DHT22;17263;48.160;11.452;2023-07-16T02:14:09;21.50;99.90
30473;DHT22;17263;48.160;11.452;2023-07-16T02:16:35;21.50;99.90
30473;DHT22;17263;48.160;11.452;2023-07-16T02:19:01;21.60;99.90
30473;DHT22;17263;48.160;11.452;2023-07-16T02:21:27;21.50;99.90
30473;DHT22;17263;48.160;11.452;2023-07-16T02:23:53;21.50;99.90
30473;DHT22;17263;48.160;11.452;2023-07-16T02:26:19;21.60;99.90
30473;DHT22;17263;48.160;11.452;2023-07-16T02:28:45;21.60;99.90
30473;DHT22;17263;48.160;11.452;2023-07-16T02:31:11;21.60;99.90
30473;DHT22;17263;48.160;11.452;2023-07-16T02:33:37;21.60;99.90
30473;DHT22;17263;48.160;11.452;2023-07-16T02:36:03;21.60;99.90
30473;DHT22;17263;48.160;11.452;2023-07-16T02:38:29;21.60;99.90
30473;DHT22;17263;48.160;11.452;2023-07-16T02:40:55;21.60;99.90
30473;DHT22;17263;48.160;11.452;2023-07-16T02:43:21;21.70;99.90
30473;DHT22;17263;48.160;11.452;2023-07-16T02:45:47;21.70;99.90
30473;DHT22;17263;48.160;11.452;2023-07-16T02:48:13;21.70;99.90
30473;DHT22;17263;48.160;11.452;2023-07-16T02:50:39;21.70;99.90
30473;DHT22;17263;48.160;11.452;2023-07-16T02:53:06;21.70;99.90
30473;DHT22;17263;48.160;11.452;2023-07-16T02:55:34;21.80;99.90
30473;DHT22;17263;48.160;11.452;2023-07-16T02:58:01;21.80;99.90
30473;DHT22;17263;48.160;11.452;2023-07-16T03:00:33;21.80;99.90
30473;DHT22;17263;48.160;11.452;2023-07-16T03:03:00;21.80;99.90
30473;DHT22;17263;48.160;11.452;2023-07-16T03:05:29;21.90;99.90
30473;DHT22;17263;48.160;11.452;2023-07-16T03:07:55;21.90;99.90
30473;DHT22;17263;48.160;11.452;2023-07-16T03:10:21;21.80;99.90
30473;DHT22;17263;48.160;11.452;2023-07-16T03:12:48;21.90;99.90
30473;DHT22;17263;48.160;11.452;2023-07-16T03:15:14;21.90;99.90
30473;DHT22;17263;48.160;11.452;2023-07-16T03:17:40;21.90;99.90
30473;DHT22;17263;48.160;11.452;2023-07-16T03:20:06;21.90;99.90
30473;DHT22;17263;48.160;11.452;2023-07-16T03:22:33;21.90;99.90
30473;DHT22;17263;48.160;11.452;2023-07-16T03:24:59;21.90;99.90
30473;DHT22;17263;48.160;11.452;2023-07-16T03:27:25;21.90;99.90
30473;DHT22;17263;48.160;11.452;2023-07-16T03:29:51;21.90;99.90
30473;DHT22;17263;48.160;11.452;2023-07-16T03:32:17;21.80;99.90
30473;DHT22;17263;48.160;11.452;2023-07-16T03:34:43;21.90;99.90
30473;DHT22;17263;48.160;11.452;2023-07-16T03:37:09;21.80;99.90
30473;DHT22;17263;48.160;11.452;2023-07-16T03:39:35;21.80;99.90
30473;DHT22;17263;48.160;11.452;2023-07-16T03:42:01;21.80;99.90
30473;DHT22;17263;48.160;11.452;2023-07-16T03:44:29;21.80;99.90
30473;DHT22;17263;48.160;11.452;2023-07-16T03:46:55;21.80;99.90
30473;DHT22;17263;48.160;11.452;2023-07-16T03:49:21;21.70;99.90
30473;DHT22;17263;48.160;11.452;2023-07-16T03:51:47;21.70;99.90
30473;DHT22;17263;48.160;11.452;2023-07-16T03:54:13;21.70;99.90
30473;DHT22;17263;48.160;11.452;2023-07-16T03:56:39;21.70;99.90
30473;DHT22;17263;48.160;11.452;2023-07-16T03:59:05;21.60;99.90
30473;DHT22;17263;48.160;11.452;2023-07-16T04:01:31;21.60;99.90
30473;DHT22;17263;48.160;11.452;2023-07-16T04:03:57;21.60;99.90
30473;DHT22;17263;48.160;11.452;2023-07-16T04:06:23;21.50;99.90
30473;DHT22;17263;48.160;11.452;2023-07-16T04:08:49;21.50;99.90
30473;DHT22;17263;48.160;11.452;2023-07-16T04:11:15;21.50;99.90
30473;DHT22;17263;48.160;11.452;2023-07-16T04:13:41;21.40;99.90
30473;DHT22;17263;48.160;11.452;2023-07-16T04:16:07;21.40;99.90
30473;DHT22;17263;48.160;11.452;2023-07-16T04:18:33;21.40;99.90
30473;DHT22;17263;48.160;11.452;2023-07-16T04:21:02;21.30;99.90
30473;DHT22;17263;48.160;11.452;2023-07-16T04:23:35;21.20;99.90
30473;DHT22;17263;48.160;11.452;2023-07-16T04:26:01;21.20;99.90
30473;DHT22;17263;48.160;11.452;2023-07-16T04:28:27;21.10;99.90
30473;DHT22;17263;48.160;11.452;2023-07-16T04:30:53;21.00;99.90
30473;DHT22;17263;48.160;11.452;2023-07-16T04:33:19;20.90;99.90
30473;DHT22;17263;48.160;11.452;2023-07-16T04:35:45;20.80;99.90
30473;DHT22;17263;48.160;11.452;2023-07-16T04:38:11;20.80;99.90
30473;DHT22;17263;48.160;11.452;2023-07-16T04:40:44;20.70;99.90
30473;DHT22;17263;48.160;11.452;2023-07-16T04:43:13;20.70;99.90
30473;DHT22;17263;48.160;11.452;2023-07-16T04:45:46;20.60;99.90
30473;DHT22;17263;48.160;11.452;2023-07-16T04:48:15;20.60;99.90
30473;DHT22;17263;48.160;11.452;2023-07-16T04:50:41;20.60;99.90
30473;DHT22;17263;48.160;11.452;2023-07-16T04:53:11;20.50;99.90
30473;DHT22;17263;48.160;11.452;2023-07-16T04:55:54;20.40;99.90
30473;DHT22;17263;48.160;11.452;2023-07-16T04:58:22;20.40;99.90
30473;DHT22;17263;48.160;11.452;2023-07-16T05:00:48;20.30;99.90
30473;DHT22;17263;48.160;11.452;2023-07-16T05:03:15;20.30;99.90
30473;DHT22;17263;48.160;11.452;2023-07-16T05:05:41;20.40;99.90
30473;DHT22;17263;48.160;11.452;2023-07-16T05:08:07;20.40;99.90
30473;DHT22;17263;48.160;11.452;2023-07-16T05:10:33;20.40;99.90
30473;DHT22;17263;48.160;11.452;2023-07-16T05:12:59;20.40;99.90
30473;DHT22;17263;48.160;11.452;2023-07-16T05:15:25;20.40;99.90
30473;DHT22;17263;48.160;11.452;2023-07-16T05:17:51;20.40;99.90
30473;DHT22;17263;48.160;11.452;2023-07-16T05:20:20;20.50;99.90
30473;DHT22;17263;48.160;11.452;2023-07-16T05:22:46;20.60;99.90
30473;DHT22;17263;48.160;11.452;2023-07-16T05:25:12;20.50;99.90
30473;DHT22;17263;48.160;11.452;2023-07-16T05:27:38;20.50;99.90
30473;DHT22;17263;48.160;11.452;2023-07-16T05:30:05;20.60;99.90
30473;DHT22;17263;48.160;11.452;2023-07-16T05:32:31;20.60;99.90
30473;DHT22;17263;48.160;11.452;2023-07-16T05:35:00;20.70;99.90
30473;DHT22;17263;48.160;11.452;2023-07-16T05:37:28;20.70;99.90
30473;DHT22;17263;48.160;11.452;2023-07-16T05:39:54;20.80;99.90
30473;DHT22;17263;48.160;11.452;2023-07-16T05:42:20;20.80;99.90
30473;DHT22;17263;48.160;11.452;2023-07-16T05:44:49;20.90;99.90
30473;DHT22;17263;48.160;11.452;2023-07-16T05:47:15;20.90;99.90
30473;DHT22;17263;48.160;11.452;2023-07-16T05:49:41;21.00;99.90
30473;DHT22;17263;48.160;11.452;2023-07-16T05:52:10;21.20;99.90
30473;DHT22;17263;48.160;11.452;2023-07-16T05:54:36;21.40;99.90
30473;DHT22;17263;48.160;11.452;2023-07-16T05:57:02;21.60;99.90
30473;DHT22;17263;48.160;11.452;2023-07-16T05:59:28;21.80;99.90
30473;DHT22;17263;48.160;11.452;2023-07-16T06:01:54;22.00;99.90
30473;DHT22;17263;48.160;11.452;2023-07-16T06:04:21;22.10;99.90
30473;DHT22;17263;48.160;11.452;2023-07-16T06:06:47;22.10;99.90
30473;DHT22;17263;48.160;11.452;2023-07-16T06:09:15;22.10;99.90
30473;DHT22;17263;48.160;11.452;2023-07-16T06:11:41;22.00;99.90
30473;DHT22;17263;48.160;11.452;2023-07-16T06:14:08;22.10;99.90
30473;DHT22;17263;48.160;11.452;2023-07-16T06:16:34;22.40;99.90
30473;DHT22;17263;48.160;11.452;2023-07-16T06:19:00;22.90;99.90
30473;DHT22;17263;48.160;11.452;2023-07-16T06:21:26;23.10;99.90
30473;DHT22;17263;48.160;11.452;2023-07-16T06:23:52;23.20;99.90
30473;DHT22;17263;48.160;11.452;2023-07-16T06:26:18;23.10;99.90
30473;DHT22;17263;48.160;11.452;2023-07-16T06:28:46;23.10;99.90
30473;DHT22;17263;48.160;11.452;2023-07-16T06:31:16;22.90;99.90
30473;DHT22;17263;48.160;11.452;2023-07-16T06:33:42;22.90;99.90
30473;DHT22;17263;48.160;11.452;2023-07-16T06:36:08;22.80;99.90
30473;DHT22;17263;48.160;11.452;2023-07-16T06:38:34;22.70;99.90
30473;DHT22;17263;48.160;11.452;2023-07-16T06:41:00;22.70;99.90
30473;DHT22;17263;48.160;11.452;2023-07-16T06:43:27;22.70;99.90
30473;DHT22;17263;48.160;11.452;2023-07-16T06:45:53;22.80;99.90
30473;DHT22;17263;48.160;11.452;2023-07-16T06:48:19;23.00;99.90
30473;DHT22;17263;48.160;11.452;2023-07-16T06:50:45;23.40;99.90
30473;DHT22;17263;48.160;11.452;2023-07-16T06:53:11;24.10;99.90
30473;DHT22;17263;48.160;11.452;2023-07-16T06:55:37;24.80;99.90
30473;DHT22;17263;48.160;11.452;2023-07-16T06:58:03;25.10;99.90
30473;DHT22;17263;48.160;11.452;2023-07-16T07:00:29;25.10;99.90
30473;DHT22;17263;48.160;11.452;2023-07-16T07:02:55;25.10;99.90
30473;DHT22;17263;48.160;11.452;2023-07-16T07:05:21;24.90;99.90
30473;DHT22;17263;48.160;11.452;2023-07-16T07:07:47;24.70;99.90
30473;DHT22;17263;48.160;11.452;2023-07-16T07:10:13;24.50;99.90
30473;DHT22;17263;48.160;11.452;2023-07-16T07:12:40;24.40;99.90
30473;DHT22;17263;48.160;11.452;2023-07-16T07:15:07;24.30;99.90
30473;DHT22;17263;48.160;11.452;2023-07-16T07:17:33;24.10;99.90
30473;DHT22;17263;48.160;11.452;2023-07-16T07:20:00;23.90;99.90
30473;DHT22;17263;48.160;11.452;2023-07-16T07:22:26;23.80;99.90
30473;DHT22;17263;48.160;11.452;2023-07-16T07:24:52;23.70;99.90
30473;DHT22;17263;48.160;11.452;2023-07-16T07:27:18;23.60;99.90
30473;DHT22;17263;48.160;11.452;2023-07-16T07:29:44;23.50;99.90
30473;DHT22;17263;48.160;11.452;2023-07-16T07:32:12;23.40;99.90
30473;DHT22;17263;48.160;11.452;2023-07-16T07:34:41;23.30;99.90
30473;DHT22;17263;48.160;11.452;2023-07-16T07:37:07;23.40;99.90
30473;DHT22;17263;48.160;11.452;2023-07-16T07:39:34;23.30;99.90
30473;DHT22;17263;48.160;11.452;2023-07-16T07:42:00;23.20;99.90
30473;DHT22;17263;48.160;11.452;2023-07-16T07:44:26;23.10;99.90
30473;DHT22;17263;48.160;11.452;2023-07-16T07:46:52;23.10;99.90
30473;DHT22;17263;48.160;11.452;2023-07-16T07:49:18;23.20;99.90
30473;DHT22;17263;48.160;11.452;2023-07-16T07:51:44;23.30;99.90
30473;DHT22;17263;48.160;11.452;2023-07-16T07:54:10;23.40;99.90
30473;DHT22;17263;48.160;11.452;2023-07-16T07:56:36;23.40;99.90
30473;DHT22;17263;48.160;11.452;2023-07-16T07:59:04;23.50;99.90
30473;DHT22;17263;48.160;11.452;2023-07-16T08:01:30;23.40;99.90
30473;DHT22;17263;48.160;11.452;2023-07-16T08:03:56;23.40;99.90
30473;DHT22;17263;48.160;11.452;2023-07-16T08:06:22;23.40;99.90
30473;DHT22;17263;48.160;11.452;2023-07-16T08:08:48;23.40;99.90
30473;DHT22;17263;48.160;11.452;2023-07-16T08:11:14;23.60;99.90
30473;DHT22;17263;48.160;11.452;2023-07-16T08:13:40;23.70;99.90
30473;DHT22;17263;48.160;11.452;2023-07-16T08:16:06;24.20;99.90
30473;DHT22;17263;48.160;11.452;2023-07-16T08:18:32;25.00;99.90
30473;DHT22;17263;48.160;11.452;2023-07-16T08:20:58;25.60;99.90
30473;DHT22;17263;48.160;11.452;2023-07-16T08:23:24;25.80;99.90
30473;DHT22;17263;48.160;11.452;2023-07-16T08:25:50;26.00;99.90
30473;DHT22;17263;48.160;11.452;2023-07-16T08:28:17;26.40;99.90
30473;DHT22;17263;48.160;11.452;2023-07-16T08:30:46;26.80;99.90
30473;DHT22;17263;48.160;11.452;2023-07-16T08:33:12;26.80;99.90
30473;DHT22;17263;48.160;11.452;2023-07-16T08:35:41;26.80;99.90
30473;DHT22;17263;48.160;11.452;2023-07-16T08:38:07;26.50;99.90
30473;DHT22;17263;48.160;11.452;2023-07-16T08:40:37;26.30;99.90
30473;DHT22;17263;48.160;11.452;2023-07-16T08:43:05;26.20;99.90
30473;DHT22;17263;48.160;11.452;2023-07-16T08:45:35;26.50;99.90
30473;DHT22;17263;48.160;11.452;2023-07-16T08:48:06;27.10;99.90
30473;DHT22;17263;48.160;11.452;2023-07-16T08:50:35;27.40;99.90
30473;DHT22;17263;48.160;11.452;2023-07-16T08:53:04;27.90;99.90
30473;DHT22;17263;48.160;11.452;2023-07-16T08:55:31;27.80;99.90
30473;DHT22;17263;48.160;11.452;2023-07-16T08:57:58;27.80;99.90
30473;DHT22;17263;48.160;11.452;2023-07-16T09:00:28;27.70;99.90
30473;DHT22;17263;48.160;11.452;2023-07-16T09:02:55;27.50;99.90
30473;DHT22;17263;48.160;11.452;2023-07-16T09:05:22;27.20;99.90
30473;DHT22;17263;48.160;11.452;2023-07-16T09:07:49;26.80;99.90
30473;DHT22;17263;48.160;11.452;2023-07-16T09:10:15;26.80;99.90
30473;DHT22;17263;48.160;11.452;2023-07-16T09:12:45;27.10;99.90
30473;DHT22;17263;48.160;11.452;2023-07-16T09:15:17;27.30;99.90
30473;DHT22;17263;48.160;11.452;2023-07-16T09:17:48;27.40;99.90
30473;DHT22;17263;48.160;11.452;2023-07-16T09:20:15;27.60;99.90
30473;DHT22;17263;48.160;11.452;2023-07-16T09:22:43;27.60;99.90
30473;DHT22;17263;48.160;11.452;2023-07-16T09:25:10;27.50;99.90
30473;DHT22;17263;48.160;11.452;2023-07-16T09:27:36;27.40;99.90
30473;DHT22;17263;48.160;11.452;2023-07-16T09:30:06;27.10;99.90
30473;DHT22;17263;48.160;11.452;2023-07-16T09:32:38;27.10;99.90
30473;DHT22;17263;48.160;11.452;2023-07-16T09:35:15;27.20;99.90
30473;DHT22;17263;48.160;11.452;2023-07-16T09:37:42;27.50;99.90
30473;DHT22;17263;48.160;11.452;2023-07-16T09:40:10;27.70;99.90
30473;DHT22;17263;48.160;11.452;2023-07-16T09:42:43;28.10;99.90
30473;DHT22;17263;48.160;11.452;2023-07-16T09:45:17;28.40;99.90
30473;DHT22;17263;48.160;11.452;2023-07-16T09:47:44;28.20;99.90
30473;DHT22;17263;48.160;11.452;2023-07-16T09:50:11;28.00;99.90
30473;DHT22;17263;48.160;11.452;2023-07-16T09:52:37;27.80;99.90
30473;DHT22;17263;48.160;11.452;2023-07-16T09:55:08;27.60;99.90
30473;DHT22;17263;48.160;11.452;2023-07-16T09:57:36;27.50;99.90
30473;DHT22;17263;48.160;11.452;2023-07-16T10:00:06;27.70;99.90
30473;DHT22;17263;48.160;11.452;2023-07-16T10:02:34;28.00;99.90
30473;DHT22;17263;48.160;11.452;2023-07-16T10:05:24;28.00;99.90
30473;DHT22;17263;48.160;11.452;2023-07-16T10:07:53;28.00;99.90
30473;DHT22;17263;48.160;11.452;2023-07-16T10:10:19;27.90;99.90
30473;DHT22;17263;48.160;11.452;2023-07-16T10:12:56;27.70;99.90
30473;DHT22;17263;48.160;11.452;2023-07-16T10:15:26;27.60;99.90
30473;DHT22;17263;48.160;11.452;2023-07-16T10:17:53;27.40;99.90
30473;DHT22;17263;48.160;11.452;2023-07-16T10:20:36;27.30;99.90
30473;DHT22;17263;48.160;11.452;2023-07-16T10:23:13;27.20;99.90
30473;DHT22;17263;48.160;11.452;2023-07-16T10:25:40;27.10;99.90
30473;DHT22;17263;48.160;11.452;2023-07-16T10:28:06;27.00;99.90
30473;DHT22;17263;48.160;11.452;2023-07-16T10:30:33;27.00;99.90
30473;DHT22;17263;48.160;11.452;2023-07-16T10:33:03;27.10;99.90
30473;DHT22;17263;48.160;11.452;2023-07-16T10:35:41;27.10;99.90
30473;DHT22;17263;48.160;11.452;2023-07-16T10:38:07;27.10;99.90
30473;DHT22;17263;48.160;11.452;2023-07-16T10:40:33;27.00;99.90
30473;DHT22;17263;48.160;11.452;2023-07-16T10:43:06;27.00;99.90
30473;DHT22;17263;48.160;11.452;2023-07-16T10:45:32;27.00;99.90
30473;DHT22;17263;48.160;11.452;2023-07-16T10:47:59;27.00;99.90
30473;DHT22;17263;48.160;11.452;2023-07-16T10:50:25;27.00;99.90
30473;DHT22;17263;48.160;11.452;2023-07-16T10:52:52;27.00;99.90
30473;DHT22;17263;48.160;11.452;2023-07-16T10:55:19;27.00;99.90
30473;DHT22;17263;48.160;11.452;2023-07-16T10:57:49;26.90;99.90
30473;DHT22;17263;48.160;11.452;2023-07-16T11:00:17;26.90;99.90
30473;DHT22;17263;48.160;11.452;2023-07-16T11:02:44;26.80;99.90
30473;DHT22;17263;48.160;11.452;2023-07-16T11:05:10;26.70;99.90
30473;DHT22;17263;48.160;11.452;2023-07-16T11:07:37;26.60;99.90
30473;DHT22;17263;48.160;11.452;2023-07-16T11:10:04;26.70;99.90
30473;DHT22;17263;48.160;11.452;2023-07-16T11:12:30;26.70;99.90
30473;DHT22;17263;48.160;11.452;2023-07-16T11:14:56;26.80;99.90
30473;DHT22;17263;48.160;11.452;2023-07-16T11:17:24;26.80;99.90
30473;DHT22;17263;48.160;11.452;2023-07-16T11:19:51;26.80;99.90
30473;DHT22;17263;48.160;11.452;2023-07-16T11:22:18;26.90;99.90
30473;DHT22;17263;48.160;11.452;2023-07-16T11:24:46;27.00;99.90
30473;DHT22;17263;48.160;11.452;2023-07-16T11:27:18;27.10;99.90
30473;DHT22;17263;48.160;11.452;2023-07-16T11:29:55;27.10;99.90
30473;DHT22;17263;48.160;11.452;2023-07-16T11:32:32;27.20;99.90
30473;DHT22;17263;48.160;11.452;2023-07-16T11:35:00;27.30;99.90
30473;DHT22;17263;48.160;11.452;2023-07-16T11:37:28;27.50;99.90
30473;DHT22;17263;48.160;11.452;2023-07-16T11:39:58;27.60;99.90
30473;DHT22;17263;48.160;11.452;2023-07-16T11:42:28;27.70;99.90
30473;DHT22;17263;48.160;11.452;2023-07-16T11:44:55;27.70;99.90
30473;DHT22;17263;48.160;11.452;2023-07-16T11:47:21;27.60;99.90
30473;DHT22;17263;48.160;11.452;2023-07-16T11:49:48;27.30;99.90
30473;DHT22;17263;48.160;11.452;2023-07-16T11:52:18;27.30;99.90
30473;DHT22;17263;48.160;11.452;2023-07-16T11:54:44;27.20;99.90
30473;DHT22;17263;48.160;11.452;2023-07-16T11:57:10;27.10;99.90
30473;DHT22;17263;48.160;11.452;2023-07-16T11:59:36;27.00;99.90
30473;DHT22;17263;48.160;11.452;2023-07-16T12:02:02;27.00;99.90
30473;DHT22;17263;48.160;11.452;2023-07-16T12:04:28;26.90;99.90
30473;DHT22;17263;48.160;11.452;2023-07-16T12:06:54;26.80;99.90
30473;DHT22;17263;48.160;11.452;2023-07-16T12:09:20;26.70;99.90
30473;DHT22;17263;48.160;11.452;2023-07-16T12:11:46;26.70;99.90
30473;DHT22;17263;48.160;11.452;2023-07-16T12:14:12;26.70;99.90
30473;DHT22;17263;48.160;11.452;2023-07-16T12:16:39;26.70;99.90
30473;DHT22;17263;48.160;11.452;2023-07-16T12:19:08;26.70;99.90
30473;DHT22;17263;48.160;11.452;2023-07-16T12:21:35;26.70;99.90
30473;DHT22;17263;48.160;11.452;2023-07-16T12:24:01;26.80;99.90
30473;DHT22;17263;48.160;11.452;2023-07-16T12:26:27;26.90;99.90
30473;DHT22;17263;48.160;11.452;2023-07-16T12:28:54;26.90;99.90
30473;DHT22;17263;48.160;11.452;2023-07-16T12:31:20;27.10;99.90
30473;DHT22;17263;48.160;11.452;2023-07-16T12:33:46;27.20;99.90
30473;DHT22;17263;48.160;11.452;2023-07-16T12:36:13;27.20;99.90
30473;DHT22;17263;48.160;11.452;2023-07-16T12:38:40;27.20;99.90
30473;DHT22;17263;48.160;11.452;2023-07-16T12:41:06;27.10;99.90
30473;DHT22;17263;48.160;11.452;2023-07-16T12:43:32;27.10;99.90
30473;DHT22;17263;48.160;11.452;2023-07-16T12:46:03;27.10;99.90
30473;DHT22;17263;48.160;11.452;2023-07-16T12:48:30;26.90;99.90
30473;DHT22;17263;48.160;11.452;2023-07-16T12:50:56;26.80;99.90
30473;DHT22;17263;48.160;11.452;2023-07-16T12:53:23;26.80;99.90
30473;DHT22;17263;48.160;11.452;2023-07-16T12:55:49;26.80;99.90
30473;DHT22;17263;48.160;11.452;2023-07-16T12:58:15;26.70;99.90
30473;DHT22;17263;48.160;11.452;2023-07-16T13:00:41;26.70;99.90
30473;DHT22;17263;48.160;11.452;2023-07-16T13:03:08;26.60;99.90
30473;DHT22;17263;48.160;11.452;2023-07-16T13:05:40;26.60;99.90
30473;DHT22;17263;48.160;11.452;2023-07-16T13:08:07;26.50;99.90
30473;DHT22;17263;48.160;11.452;2023-07-16T13:10:33;26.40;99.90
30473;DHT22;17263;48.160;11.452;2023-07-16T13:12:59;26.40;99.90
30473;DHT22;17263;48.160;11.452;2023-07-16T13:15:25;26.40;99.90
30473;DHT22;17263;48.160;11.452;2023-07-16T13:17:51;26.50;99.90
30473;DHT22;17263;48.160;11.452;2023-07-16T13:20:17;26.70;99.90
30473;DHT22;17263;48.160;11.452;2023-07-16T13:22:44;26.70;99.90
30473;DHT22;17263;48.160;11.452;2023-07-16T13:25:10;26.60;99.90
30473;DHT22;17263;48.160;11.452;2023-07-16T13:27:36;26.60;99.90
30473;DHT22;17263;48.160;11.452;2023-07-16T13:30:03;26.60;99.90
30473;DHT22;17263;48.160;11.452;2023-07-16T13:32:29;26.70;99.90
30473;DHT22;17263;48.160;11.452;2023-07-16T13:34:55;26.70;99.90
30473;DHT22;17263;48.160;11.452;2023-07-16T13:37:21;26.80;99.90
30473;DHT22;17263;48.160;11.452;2023-07-16T13:39:47;27.00;99.90
30473;DHT22;17263;48.160;11.452;2023-07-16T13:42:13;26.90;99.90
30473;DHT22;17263;48.160;11.452;2023-07-16T13:44:40;26.80;99.90
30473;DHT22;17263;48.160;11.452;2023-07-16T13:47:06;26.80;99.90
30473;DHT22;17263;48.160;11.452;2023-07-16T13:49:32;26.80;99.90
30473;DHT22;17263;48.160;11.452;2023-07-16T13:51:58;26.80;99.90
30473;DHT22;17263;48.160;11.452;2023-07-16T13:54:24;26.90;99.90
30473;DHT22;17263;48.160;11.452;2023-07-16T13:56:50;26.80;99.90
30473;DHT22;17263;48.160;11.452;2023-07-16T13:59:16;26.90;99.90
30473;DHT22;17263;48.160;11.452;2023-07-16T14:01:42;26.90;99.90
30473;DHT22;17263;48.160;11.452;2023-07-16T14:04:08;27.00;99.90
30473;DHT22;17263;48.160;11.452;2023-07-16T14:06:34;26.90;99.90
30473;DHT22;17263;48.160;11.452;2023-07-16T14:09:00;26.80;99.90
30473;DHT22;17263;48.160;11.452;2023-07-16T14:11:26;26.80;99.90
30473;DHT22;17263;48.160;11.452;2023-07-16T14:13:52;26.80;99.90
30473;DHT22;17263;48.160;11.452;2023-07-16T14:16:20;26.80;99.90
30473;DHT22;17263;48.160;11.452;2023-07-16T14:18:51;26.90;99.90
30473;DHT22;17263;48.160;11.452;2023-07-16T14:21:18;26.80;99.90
30473;DHT22;17263;48.160;11.452;2023-07-16T14:23:44;26.80;99.90
30473;DHT22;17263;48.160;11.452;2023-07-16T14:26:10;26.70;99.90
30473;DHT22;17263;48.160;11.452;2023-07-16T14:28:36;26.70;99.90
30473;DHT22;17263;48.160;11.452;2023-07-16T14:31:03;26.60;99.90
30473;DHT22;17263;48.160;11.452;2023-07-16T14:33:29;26.60;99.90
30473;DHT22;17263;48.160;11.452;2023-07-16T14:35:55;26.50;99.90
30473;DHT22;17263;48.160;11.452;2023-07-16T14:38:21;26.60;99.90
30473;DHT22;17263;48.160;11.452;2023-07-16T14:40:47;26.60;99.90
30473;DHT22;17263;48.160;11.452;2023-07-16T14:43:14;26.50;99.90
30473;DHT22;17263;48.160;11.452;2023-07-16T14:45:40;26.50;99.90
30473;DHT22;17263;48.160;11.452;2023-07-16T14:48:06;26.60;99.90
30473;DHT22;17263;48.160;11.452;2023-07-16T14:50:32;26.50;99.90
30473;DHT22;17263;48.160;11.452;2023-07-16T14:52:58;26.60;99.90
30473;DHT22;17263;48.160;11.452;2023-07-16T14:55:24;26.60;99.90
30473;DHT22;17263;48.160;11.452;2023-07-16T14:57:50;26.50;99.90
30473;DHT22;17263;48.160;11.452;2023-07-16T15:00:16;26.50;99.90
30473;DHT22;17263;48.160;11.452;2023-07-16T15:02:42;26.40;99.90
30473;DHT22;17263;48.160;11.452;2023-07-16T15:05:09;26.40;99.90
30473;DHT22;17263;48.160;11.452;2023-07-16T15:07:36;26.30;99.90
30473;DHT22;17263;48.160;11.452;2023-07-16T15:10:03;26.20;99.90
30473;DHT22;17263;48.160;11.452;2023-07-16T15:12:30;26.10;99.90
30473;DHT22;17263;48.160;11.452;2023-07-16T15:14:56;26.00;99.90
30473;DHT22;17263;48.160;11.452;2023-07-16T15:17:22;26.00;99.90
30473;DHT22;17263;48.160;11.452;2023-07-16T15:19:49;26.00;99.90